createdAt,value
2018-01-05T00:00:17.108Z,983.51
2018-01-05T00:02:10.006Z,983.57
2018-01-05T00:03:09.995Z,983.55
2018-01-05T00:05:02.903Z,983.76
2018-01-05T00:06:02.922Z,984.06
2018-01-05T00:07:56.222Z,984.67
2018-01-05T00:08:56.206Z,983.90
2018-01-05T00:10:49.114Z,984.59
2018-01-05T00:11:49.122Z,984.71
2018-01-05T00:13:42.052Z,984.30
2018-01-05T00:14:42.040Z,984.61
2018-01-05T00:16:34.951Z,984.31
2018-01-05T00:17:34.965Z,984.51
2018-01-05T00:19:27.981Z,984.21
2018-01-05T00:20:27.938Z,984.19
2018-01-05T00:22:21.155Z,984.48
2018-01-05T00:23:21.156Z,984.71
2018-01-05T00:25:14.084Z,984.29
2018-01-05T00:26:14.091Z,984.39
2018-01-05T00:28:07.014Z,984.48
2018-01-05T00:29:07.013Z,984.70
2018-01-05T00:30:59.923Z,984.47
2018-01-05T00:31:59.936Z,984.49
2018-01-05T00:33:56.817Z,984.50
2018-01-05T00:34:56.824Z,984.42
2018-01-05T00:36:49.748Z,984.47
2018-01-05T00:37:49.752Z,984.46
2018-01-05T00:39:42.872Z,984.43
2018-01-05T00:40:42.866Z,984.46
2018-01-05T00:42:35.945Z,984.65
2018-01-05T00:43:35.841Z,984.53
2018-01-05T00:45:29.406Z,984.84
2018-01-05T00:46:29.403Z,984.67
2018-01-05T00:48:22.314Z,985.07
2018-01-05T00:49:22.333Z,984.76
2018-01-05T00:51:15.364Z,984.73
2018-01-05T00:52:15.351Z,984.68
2018-01-05T00:54:08.279Z,984.72
2018-01-05T00:55:08.279Z,984.56
2018-01-05T00:57:01.202Z,985.01
2018-01-05T00:58:01.194Z,984.96
2018-01-05T00:59:54.149Z,984.89
2018-01-05T01:00:54.161Z,984.87
2018-01-05T01:02:47.553Z,985.03
2018-01-05T01:03:47.556Z,985.50
2018-01-05T01:05:40.448Z,985.14
2018-01-05T01:06:40.464Z,985.11
2018-01-05T01:08:33.410Z,985.21
2018-01-05T01:09:33.395Z,985.04
2018-01-05T01:11:26.301Z,985.11
2018-01-05T01:12:26.310Z,985.04
2018-01-05T01:14:19.618Z,985.22
2018-01-05T01:15:19.247Z,985.25
2018-01-05T01:17:12.501Z,985.17
2018-01-05T01:18:12.490Z,985.20
2018-01-05T01:20:05.439Z,985.18
2018-01-05T01:21:05.440Z,985.57
2018-01-05T01:22:58.355Z,985.19
2018-01-05T01:23:58.365Z,985.23
2018-01-05T01:25:52.522Z,985.43
2018-01-05T01:26:52.096Z,985.25
2018-01-05T01:28:46.047Z,985.27
2018-01-05T01:29:46.058Z,985.35
2018-01-05T01:31:38.975Z,985.38
2018-01-05T01:32:38.975Z,985.55
2018-01-05T01:34:31.903Z,985.51
2018-01-05T01:35:31.899Z,985.48
2018-01-05T01:37:24.801Z,985.65
2018-01-05T01:38:24.841Z,985.56
2018-01-05T01:40:18.012Z,985.58
2018-01-05T01:41:17.745Z,985.60
2018-01-05T01:43:10.781Z,985.58
2018-01-05T01:44:10.783Z,985.69
2018-01-05T01:46:03.677Z,985.78
2018-01-05T01:47:03.697Z,985.68
2018-01-05T01:48:56.609Z,985.70
2018-01-05T01:49:56.612Z,985.68
2018-01-05T01:51:49.519Z,985.69
2018-01-05T01:52:49.533Z,985.64
2018-01-05T01:54:42.444Z,985.83
2018-01-05T01:55:42.445Z,985.61
2018-01-05T01:57:35.355Z,985.73
2018-01-05T01:58:35.369Z,985.68
2018-01-05T02:00:28.523Z,985.76
2018-01-05T02:01:28.532Z,985.75
2018-01-05T02:03:21.412Z,985.77
2018-01-05T02:04:21.435Z,985.70
2018-01-05T02:06:14.341Z,985.70
2018-01-05T02:07:14.351Z,985.73
2018-01-05T02:09:07.254Z,985.76
2018-01-05T02:10:07.276Z,985.85
2018-01-05T02:12:00.205Z,985.81
2018-01-05T02:13:00.186Z,985.80
2018-01-05T02:14:53.108Z,985.77
2018-01-05T02:15:53.108Z,985.78
2018-01-05T02:17:46.045Z,985.93
2018-01-05T02:18:46.035Z,985.84
2018-01-05T02:20:38.939Z,985.61
2018-01-05T02:21:38.952Z,985.70
2018-01-05T02:23:31.870Z,985.81
2018-01-05T02:24:31.865Z,985.77
2018-01-05T02:26:24.773Z,985.80
2018-01-05T02:27:24.797Z,985.73
2018-01-05T02:29:17.710Z,985.70
2018-01-05T02:30:17.698Z,985.65
2018-01-05T02:32:10.606Z,985.77
2018-01-05T02:33:10.676Z,985.86
2018-01-05T02:35:03.688Z,985.91
2018-01-05T02:36:03.655Z,986.10
2018-01-05T02:37:56.569Z,985.87
2018-01-05T02:38:56.579Z,985.99
2018-01-05T02:40:50.039Z,985.98
2018-01-05T02:41:50.035Z,985.93
2018-01-05T02:43:42.945Z,985.92
2018-01-05T02:44:42.966Z,985.83
2018-01-05T02:46:36.100Z,985.89
2018-01-05T02:47:36.111Z,985.89
2018-01-05T02:49:29.033Z,985.90
2018-01-05T02:50:29.036Z,985.86
2018-01-05T02:52:21.952Z,985.97
2018-01-05T02:53:21.961Z,985.89
2018-01-05T02:55:15.095Z,985.83
2018-01-05T02:56:15.100Z,985.95
2018-01-05T02:58:08.014Z,985.92
2018-01-05T02:59:08.032Z,986.02
2018-01-05T03:01:00.947Z,985.90
2018-01-05T03:02:00.953Z,985.92
2018-01-05T03:03:53.855Z,985.93
2018-01-05T03:04:53.877Z,986.02
2018-01-05T03:06:46.805Z,986.04
2018-01-05T03:07:46.795Z,986.02
2018-01-05T03:09:39.708Z,986.02
2018-01-05T03:10:39.728Z,985.97
2018-01-05T03:12:32.640Z,986.40
2018-01-05T03:13:32.638Z,986.14
2018-01-05T03:15:25.905Z,985.97
2018-01-05T03:16:25.915Z,985.97
2018-01-05T03:18:18.847Z,986.24
2018-01-05T03:19:18.849Z,985.98
2018-01-05T03:21:11.765Z,985.90
2018-01-05T03:22:11.769Z,986.01
2018-01-05T03:24:04.682Z,986.14
2018-01-05T03:25:04.685Z,985.93
2018-01-05T03:26:57.603Z,986.07
2018-01-05T03:27:57.603Z,986.16
2018-01-05T03:29:50.516Z,986.01
2018-01-05T03:30:50.534Z,986.17
2018-01-05T03:32:43.448Z,985.91
2018-01-05T03:33:43.443Z,986.11
2018-01-05T03:35:36.356Z,986.08
2018-01-05T03:36:36.361Z,986.42
2018-01-05T03:38:29.278Z,986.00
2018-01-05T03:39:29.281Z,986.20
2018-01-05T03:41:22.183Z,986.08
2018-01-05T03:42:22.191Z,985.93
2018-01-05T03:44:15.249Z,986.01
2018-01-05T03:45:15.255Z,986.05
2018-01-05T03:47:08.198Z,985.99
2018-01-05T03:48:08.227Z,986.16
2018-01-05T03:50:01.099Z,986.12
2018-01-05T03:51:01.105Z,986.07
2018-01-05T03:52:54.027Z,986.04
2018-01-05T03:53:54.019Z,986.13
2018-01-05T03:55:46.959Z,986.12
2018-01-05T03:56:46.970Z,985.92
2018-01-05T03:58:39.892Z,986.16
2018-01-05T03:59:39.893Z,986.08
2018-01-05T04:01:32.791Z,986.02
2018-01-05T04:02:32.808Z,986.05
2018-01-05T04:04:25.737Z,986.04
2018-01-05T04:05:25.727Z,986.16
2018-01-05T04:07:18.631Z,986.05
2018-01-05T04:08:18.648Z,986.28
2018-01-05T04:10:11.584Z,986.35
2018-01-05T04:11:11.591Z,986.05
2018-01-05T04:13:04.471Z,986.28
2018-01-05T04:14:04.490Z,986.22
2018-01-05T04:15:57.581Z,986.03
2018-01-05T04:16:57.581Z,986.03
2018-01-05T04:18:50.491Z,986.08
2018-01-05T04:19:50.513Z,986.08
2018-01-05T04:21:43.434Z,986.04
2018-01-05T04:22:43.423Z,986.11
2018-01-05T04:24:36.324Z,986.04
2018-01-05T04:25:36.340Z,986.30
2018-01-05T04:27:29.246Z,986.01
2018-01-05T04:28:29.252Z,986.30
2018-01-05T04:30:22.157Z,986.13
2018-01-05T04:31:22.202Z,986.34
2018-01-05T04:33:15.079Z,986.10
2018-01-05T04:34:15.086Z,986.01
2018-01-05T04:36:07.989Z,986.18
2018-01-05T04:37:08.003Z,986.20
2018-01-05T04:39:00.923Z,986.15
2018-01-05T04:40:00.920Z,986.12
2018-01-05T04:41:53.823Z,986.18
2018-01-05T04:42:53.835Z,986.22
2018-01-05T04:44:46.764Z,986.14
2018-01-05T04:45:46.751Z,986.18
2018-01-05T04:47:39.648Z,986.18
2018-01-05T04:48:39.666Z,986.12
2018-01-05T04:50:32.608Z,986.00
2018-01-05T04:51:32.588Z,986.21
2018-01-05T04:53:25.485Z,986.33
2018-01-05T04:54:25.500Z,986.26
2018-01-05T04:56:18.412Z,986.28
2018-01-05T04:57:18.413Z,986.19
2018-01-05T04:59:11.319Z,986.30
2018-01-05T05:00:11.334Z,986.27
2018-01-05T05:02:04.249Z,986.24
2018-01-05T05:03:04.246Z,986.19
2018-01-05T05:04:57.153Z,986.34
2018-01-05T05:05:57.164Z,986.41
2018-01-05T05:07:50.079Z,986.37
2018-01-05T05:08:50.086Z,986.35
2018-01-05T05:10:42.992Z,986.40
2018-01-05T05:11:43.013Z,986.34
2018-01-05T05:13:36.121Z,986.31
2018-01-05T05:14:36.114Z,986.46
2018-01-05T05:16:29.272Z,986.36
2018-01-05T05:17:29.281Z,986.49
2018-01-05T05:19:22.214Z,986.48
2018-01-05T05:20:22.206Z,986.47
2018-01-05T05:22:15.109Z,986.50
2018-01-05T05:23:15.124Z,986.43
2018-01-05T05:25:08.057Z,986.39
2018-01-05T05:26:08.057Z,986.47
2018-01-05T05:28:00.956Z,986.58
2018-01-05T05:29:00.970Z,986.57
2018-01-05T05:30:53.890Z,986.57
2018-01-05T05:31:53.889Z,986.63
2018-01-05T05:33:46.802Z,986.70
2018-01-05T05:34:46.819Z,986.64
2018-01-05T05:36:39.726Z,986.98
2018-01-05T05:37:39.733Z,986.71
2018-01-05T05:39:32.667Z,986.61
2018-01-05T05:40:32.648Z,986.80
2018-01-05T05:42:25.553Z,986.87
2018-01-05T05:43:25.572Z,986.91
2018-01-05T05:45:18.503Z,986.85
2018-01-05T05:46:18.488Z,986.83
2018-01-05T05:48:11.390Z,986.90
2018-01-05T05:49:11.404Z,986.97
2018-01-05T05:51:04.330Z,987.04
2018-01-05T05:52:04.321Z,987.38
2018-01-05T05:53:57.233Z,986.87
2018-01-05T05:54:57.242Z,986.88
2018-01-05T05:56:50.150Z,987.00
2018-01-05T05:57:50.153Z,986.89
2018-01-05T05:59:43.121Z,986.94
2018-01-05T06:00:43.113Z,986.99
2018-01-05T06:02:36.022Z,987.10
2018-01-05T06:03:36.044Z,987.14
2018-01-05T06:05:28.961Z,987.09
2018-01-05T06:06:28.960Z,987.03
2018-01-05T06:08:21.865Z,987.35
2018-01-05T06:09:21.883Z,987.03
2018-01-05T06:11:14.790Z,987.06
2018-01-05T06:12:14.792Z,987.08
2018-01-05T06:14:07.692Z,987.07
2018-01-05T06:15:07.710Z,987.16
2018-01-05T06:17:00.647Z,987.03
2018-01-05T06:18:00.627Z,987.07
2018-01-05T06:19:53.527Z,986.96
2018-01-05T06:20:53.542Z,987.03
2018-01-05T06:22:46.477Z,987.04
2018-01-05T06:23:46.458Z,986.96
2018-01-05T06:25:39.365Z,986.91
2018-01-05T06:26:39.372Z,987.17
2018-01-05T06:28:32.440Z,986.99
2018-01-05T06:29:32.446Z,987.20
2018-01-05T06:31:25.399Z,987.28
2018-01-05T06:32:25.414Z,987.08
2018-01-05T06:34:18.332Z,987.06
2018-01-05T06:35:18.333Z,987.03
2018-01-05T06:37:11.295Z,987.03
2018-01-05T06:38:11.305Z,987.07
2018-01-05T06:40:04.250Z,987.27
2018-01-05T06:41:04.246Z,987.19
2018-01-05T06:42:57.177Z,987.16
2018-01-05T06:43:57.169Z,987.10
2018-01-05T06:45:50.071Z,987.17
2018-01-05T06:46:50.083Z,987.11
2018-01-05T06:48:43.049Z,987.05
2018-01-05T06:49:43.042Z,987.21
2018-01-05T06:51:35.941Z,987.14
2018-01-05T06:52:35.950Z,987.01
2018-01-05T06:54:28.868Z,987.09
2018-01-05T06:55:28.872Z,987.08
2018-01-05T06:57:21.831Z,987.12
2018-01-05T06:58:21.839Z,987.16
2018-01-05T07:00:14.783Z,987.06
2018-01-05T07:01:14.772Z,987.11
2018-01-05T07:03:07.694Z,987.13
2018-01-05T07:04:07.711Z,987.47
2018-01-05T07:06:00.617Z,987.26
2018-01-05T07:07:00.630Z,987.33
2018-01-05T07:08:53.543Z,987.56
2018-01-05T07:09:53.544Z,987.11
2018-01-05T07:11:46.469Z,987.38
2018-01-05T07:12:46.460Z,987.23
2018-01-05T07:14:39.362Z,987.29
2018-01-05T07:15:39.378Z,987.31
2018-01-05T07:17:32.298Z,987.29
2018-01-05T07:18:32.296Z,987.25
2018-01-05T07:20:25.239Z,987.63
2018-01-05T07:21:25.260Z,987.09
2018-01-05T07:23:18.208Z,987.31
2018-01-05T07:24:18.192Z,987.49
2018-01-05T07:26:11.091Z,987.27
2018-01-05T07:27:11.107Z,987.56
2018-01-05T07:29:04.039Z,987.33
2018-01-05T07:30:04.026Z,987.25
2018-01-05T07:31:56.929Z,987.37
2018-01-05T07:32:56.942Z,987.48
2018-01-05T07:34:49.874Z,987.36
2018-01-05T07:35:49.877Z,987.37
2018-01-05T07:37:42.784Z,987.81
2018-01-05T07:38:42.790Z,987.80
2018-01-05T07:40:35.702Z,987.40
2018-01-05T07:41:35.702Z,987.40
2018-01-05T07:43:28.607Z,987.52
2018-01-05T07:44:28.620Z,987.70
2018-01-05T07:46:21.556Z,987.51
2018-01-05T07:47:21.541Z,987.55
2018-01-05T07:49:14.442Z,987.54
2018-01-05T07:50:14.467Z,987.67
2018-01-05T07:52:07.386Z,987.51
2018-01-05T07:53:07.379Z,987.51
2018-01-05T07:55:00.395Z,987.71
2018-01-05T07:56:00.408Z,987.60
2018-01-05T07:57:53.344Z,987.63
2018-01-05T07:58:53.350Z,987.71
2018-01-05T08:00:46.250Z,987.90
2018-01-05T08:01:46.269Z,987.80
2018-01-05T08:03:39.196Z,987.87
2018-01-05T08:04:39.188Z,987.74
2018-01-05T08:06:32.083Z,987.86
2018-01-05T08:07:32.104Z,987.87
2018-01-05T08:09:25.104Z,987.96
2018-01-05T08:10:25.103Z,987.93
2018-01-05T08:12:18.042Z,987.99
2018-01-05T08:13:18.027Z,987.92
2018-01-05T08:15:10.935Z,987.90
2018-01-05T08:16:10.948Z,987.98
2018-01-05T08:18:04.478Z,987.90
2018-01-05T08:19:04.479Z,988.02
2018-01-05T08:20:57.389Z,988.21
2018-01-05T08:21:57.406Z,988.00
2018-01-05T08:23:50.335Z,988.13
2018-01-05T08:24:50.338Z,988.00
2018-01-05T08:26:43.294Z,988.05
2018-01-05T08:27:43.278Z,988.15
2018-01-05T08:29:36.237Z,988.25
2018-01-05T08:30:36.243Z,988.32
2018-01-05T08:32:29.190Z,988.28
2018-01-05T08:33:29.184Z,988.21
2018-01-05T08:35:22.718Z,988.41
2018-01-05T08:36:22.729Z,988.49
2018-01-05T08:38:15.681Z,988.41
2018-01-05T08:39:15.670Z,988.43
2018-01-05T08:41:09.111Z,988.35
2018-01-05T08:42:09.127Z,988.67
2018-01-05T08:44:02.052Z,988.57
2018-01-05T08:45:02.054Z,988.72
2018-01-05T08:46:54.967Z,988.60
2018-01-05T08:47:54.981Z,988.89
2018-01-05T08:49:47.910Z,988.91
2018-01-05T08:50:47.908Z,988.70
2018-01-05T08:52:40.835Z,988.87
2018-01-05T08:53:40.849Z,988.77
2018-01-05T08:55:34.318Z,989.04
2018-01-05T08:56:34.305Z,988.83
2018-01-05T08:58:27.280Z,989.02
2018-01-05T08:59:27.290Z,988.69
2018-01-05T09:01:20.209Z,989.05
2018-01-05T09:02:20.214Z,988.98
2018-01-05T09:04:13.122Z,989.00
2018-01-05T09:05:13.127Z,988.99
2018-01-05T09:07:06.051Z,989.15
2018-01-05T09:08:06.056Z,988.94
2018-01-05T09:09:59.103Z,989.29
2018-01-05T09:10:59.070Z,989.26
2018-01-05T09:12:51.991Z,989.11
2018-01-05T09:13:51.985Z,989.07
2018-01-05T09:15:44.946Z,989.15
2018-01-05T09:16:44.984Z,989.25
2018-01-05T09:18:37.918Z,989.24
2018-01-05T09:19:37.913Z,989.37
2018-01-05T09:21:30.827Z,989.31
2018-01-05T09:22:30.842Z,989.41
2018-01-05T09:24:24.219Z,989.42
2018-01-05T09:25:23.823Z,989.86
2018-01-05T09:27:16.937Z,989.49
2018-01-05T09:28:16.908Z,989.47
2018-01-05T09:30:09.830Z,989.47
2018-01-05T09:31:09.829Z,989.56
2018-01-05T09:33:02.726Z,989.52
2018-01-05T09:34:02.743Z,989.65
2018-01-05T09:35:55.658Z,989.77
2018-01-05T09:36:55.657Z,989.57
2018-01-05T09:38:48.548Z,989.69
2018-01-05T09:39:48.572Z,989.72
2018-01-05T09:41:41.490Z,989.75
2018-01-05T09:42:41.476Z,989.74
2018-01-05T09:44:34.566Z,989.77
2018-01-05T09:45:34.580Z,989.83
2018-01-05T09:47:27.526Z,990.01
2018-01-05T09:48:27.515Z,989.87
2018-01-05T09:50:20.445Z,989.88
2018-01-05T09:51:20.458Z,989.83
2018-01-05T09:53:13.405Z,990.05
2018-01-05T09:54:13.403Z,989.97
2018-01-05T09:56:06.302Z,990.00
2018-01-05T09:57:06.318Z,990.09
2018-01-05T09:59:08.299Z,990.51
2018-01-05T09:59:59.450Z,990.18
2018-01-05T10:01:52.430Z,990.24
2018-01-05T10:02:52.381Z,990.36
2018-01-05T10:04:45.286Z,990.38
2018-01-05T10:05:45.300Z,990.81
2018-01-05T10:07:38.221Z,990.54
2018-01-05T10:08:38.219Z,990.38
2018-01-05T10:10:31.135Z,990.36
2018-01-05T10:11:31.145Z,990.37
2018-01-05T10:13:24.083Z,990.56
2018-01-05T10:14:24.067Z,990.55
2018-01-05T10:16:16.982Z,990.67
2018-01-05T10:17:17.004Z,990.57
2018-01-05T10:19:09.954Z,990.82
2018-01-05T10:20:09.940Z,990.87
2018-01-05T10:22:02.839Z,991.03
2018-01-05T10:23:02.870Z,990.77
2018-01-05T10:24:55.789Z,990.83
2018-01-05T10:25:55.797Z,990.91
2018-01-05T10:27:48.699Z,990.92
2018-01-05T10:28:48.712Z,991.06
2018-01-05T10:30:41.674Z,990.90
2018-01-05T10:31:41.677Z,990.98
2018-01-05T10:33:34.596Z,991.23
2018-01-05T10:34:34.591Z,991.11
2018-01-05T10:36:27.515Z,991.09
2018-01-05T10:37:27.509Z,991.17
2018-01-05T10:39:21.436Z,991.13
2018-01-05T10:40:21.454Z,991.18
2018-01-05T10:42:14.366Z,991.34
2018-01-05T10:43:14.363Z,991.28
2018-01-05T10:45:07.317Z,991.36
2018-01-05T10:46:07.322Z,991.30
2018-01-05T10:48:00.288Z,991.25
2018-01-05T10:49:00.294Z,991.29
2018-01-05T10:50:53.210Z,991.42
2018-01-05T10:51:53.216Z,991.39
2018-01-05T10:53:46.149Z,991.46
2018-01-05T10:54:46.149Z,991.39
2018-01-05T10:56:39.061Z,991.48
2018-01-05T10:57:39.077Z,991.52
2018-01-05T10:59:32.005Z,991.54
2018-01-05T11:00:31.989Z,991.55
2018-01-05T11:02:24.906Z,991.60
2018-01-05T11:03:24.930Z,991.61
2018-01-05T11:05:17.831Z,991.52
2018-01-05T11:06:17.842Z,991.57
2018-01-05T11:08:10.745Z,991.77
2018-01-05T11:09:10.755Z,991.65
2018-01-05T11:11:03.686Z,991.59
2018-01-05T11:12:03.676Z,991.69
2018-01-05T11:13:56.828Z,991.70
2018-01-05T11:14:56.848Z,991.71
2018-01-05T11:16:49.832Z,991.73
2018-01-05T11:17:49.829Z,991.72
2018-01-05T11:19:42.919Z,991.71
2018-01-05T11:20:42.934Z,991.76
2018-01-05T11:22:35.852Z,991.77
2018-01-05T11:23:35.861Z,991.80
2018-01-05T11:25:28.777Z,991.82
2018-01-05T11:26:28.781Z,991.84
2018-01-05T11:28:21.685Z,991.75
2018-01-05T11:29:21.700Z,991.84
2018-01-05T11:31:14.813Z,991.87
2018-01-05T11:32:14.812Z,991.87
2018-01-05T11:34:07.754Z,991.90
2018-01-05T11:35:07.764Z,991.89
2018-01-05T11:37:00.730Z,991.98
2018-01-05T11:38:00.733Z,992.02
2018-01-05T11:39:53.661Z,992.07
2018-01-05T11:40:53.674Z,992.06
2018-01-05T11:42:46.566Z,992.00
2018-01-05T11:43:46.579Z,992.02
2018-01-05T11:45:39.488Z,992.09
2018-01-05T11:46:39.495Z,992.08
2018-01-05T11:48:32.592Z,992.08
2018-01-05T11:49:32.613Z,992.05
2018-01-05T11:51:25.533Z,992.15
2018-01-05T11:52:25.531Z,992.15
2018-01-05T11:54:18.639Z,992.20
2018-01-05T11:55:18.664Z,992.21
2018-01-05T11:57:11.558Z,992.29
2018-01-05T11:58:11.572Z,992.31
2018-01-05T12:00:04.693Z,992.24
2018-01-05T12:01:04.678Z,992.30
2018-01-05T12:02:57.592Z,992.31
2018-01-05T12:03:57.621Z,992.31
2018-01-05T12:05:50.721Z,992.31
2018-01-05T12:06:50.715Z,992.33
2018-01-05T12:08:43.626Z,992.30
2018-01-05T12:09:43.647Z,992.39
2018-01-05T12:11:36.551Z,992.45
2018-01-05T12:12:36.557Z,992.45
2018-01-05T12:14:29.624Z,992.47
2018-01-05T12:15:29.638Z,992.48
2018-01-05T12:17:22.534Z,992.41
2018-01-05T12:18:22.555Z,992.48
2018-01-05T12:20:15.495Z,992.53
2018-01-05T12:21:15.491Z,992.55
2018-01-05T12:23:08.382Z,992.56
2018-01-05T12:24:08.407Z,992.56
2018-01-05T12:26:01.324Z,992.59
2018-01-05T12:27:01.323Z,992.62
2018-01-05T12:28:54.546Z,992.62
2018-01-05T12:29:54.565Z,992.60
2018-01-05T12:31:47.509Z,992.61
2018-01-05T12:32:47.491Z,992.66
2018-01-05T12:34:40.584Z,992.63
2018-01-05T12:35:40.595Z,992.72
2018-01-05T12:37:33.524Z,992.71
2018-01-05T12:38:33.529Z,992.69
2018-01-05T12:40:26.432Z,992.73
2018-01-05T12:41:26.447Z,992.73
2018-01-05T12:43:19.371Z,992.72
2018-01-05T12:44:19.363Z,992.75
2018-01-05T12:46:12.283Z,992.79
2018-01-05T12:47:12.290Z,992.78
2018-01-05T12:49:06.283Z,992.80
2018-01-05T12:50:06.314Z,992.82
2018-01-05T12:51:59.210Z,992.90
2018-01-05T12:52:59.222Z,992.87
2018-01-05T12:54:52.158Z,992.96
2018-01-05T12:55:52.149Z,992.88
2018-01-05T12:57:45.052Z,992.92
2018-01-05T12:58:45.064Z,992.98
2018-01-05T13:00:37.989Z,993.01
2018-01-05T13:01:37.980Z,992.94
2018-01-05T13:03:30.881Z,992.94
2018-01-05T13:04:30.896Z,992.95
2018-01-05T13:06:23.834Z,993.00
2018-01-05T13:07:23.813Z,992.96
2018-01-05T13:09:16.714Z,992.99
2018-01-05T13:10:16.730Z,992.99
2018-01-05T13:12:09.655Z,993.01
2018-01-05T13:13:09.643Z,993.00
2018-01-05T13:15:02.546Z,993.03
2018-01-05T13:16:02.565Z,992.98
2018-01-05T13:17:55.678Z,992.98
2018-01-05T13:18:55.676Z,992.98
2018-01-05T13:20:48.587Z,993.02
2018-01-05T13:21:48.605Z,992.97
2018-01-05T13:23:41.530Z,993.03
2018-01-05T13:24:41.514Z,993.03
2018-01-05T13:26:34.481Z,993.08
2018-01-05T13:27:34.436Z,993.06
2018-01-05T13:29:27.363Z,993.09
2018-01-05T13:30:27.345Z,993.14
2018-01-05T13:32:20.251Z,993.19
2018-01-05T13:33:20.255Z,993.19
2018-01-05T13:35:13.210Z,993.14
2018-01-05T13:36:13.186Z,993.21
2018-01-05T13:38:06.280Z,993.25
2018-01-05T13:39:06.314Z,993.21
2018-01-05T13:40:59.238Z,993.27
2018-01-05T13:41:59.247Z,993.28
2018-01-05T13:43:52.321Z,993.29
2018-01-05T13:44:52.327Z,993.31
2018-01-05T13:46:45.276Z,993.32
2018-01-05T13:47:45.261Z,993.28
2018-01-05T13:49:38.199Z,993.31
2018-01-05T13:50:38.213Z,993.34
2018-01-05T13:52:31.173Z,993.43
2018-01-05T13:53:31.136Z,993.39
2018-01-05T13:55:24.045Z,993.42
2018-01-05T13:56:24.048Z,993.36
2018-01-05T13:58:16.975Z,993.38
2018-01-05T13:59:16.981Z,993.40
2018-01-05T14:01:10.044Z,993.42
2018-01-05T14:02:10.123Z,993.46
2018-01-05T14:04:02.958Z,993.51
2018-01-05T14:05:02.955Z,993.50
2018-01-05T14:06:55.870Z,993.52
2018-01-05T14:07:55.870Z,993.59
2018-01-05T14:09:48.778Z,993.59
2018-01-05T14:10:48.782Z,993.63
2018-01-05T14:12:41.703Z,993.67
2018-01-05T14:13:41.707Z,993.66
2018-01-05T14:15:34.771Z,993.68
2018-01-05T14:16:34.815Z,993.72
2018-01-05T14:18:27.699Z,993.71
2018-01-05T14:19:27.712Z,993.74
2018-01-05T14:21:20.668Z,993.79
2018-01-05T14:22:20.711Z,993.80
2018-01-05T14:24:13.563Z,993.80
2018-01-05T14:25:13.580Z,993.78
2018-01-05T14:27:06.652Z,993.83
2018-01-05T14:28:06.653Z,993.80
2018-01-05T14:29:59.572Z,993.87
2018-01-05T14:30:59.570Z,993.90
2018-01-05T14:32:52.469Z,993.91
2018-01-05T14:33:52.482Z,993.90
2018-01-05T14:35:45.413Z,993.91
2018-01-05T14:36:45.411Z,993.87
2018-01-05T14:38:38.314Z,993.94
2018-01-05T14:39:38.327Z,993.93
2018-01-05T14:41:31.229Z,994.03
2018-01-05T14:42:31.240Z,993.97
2018-01-05T14:44:24.166Z,994.05
2018-01-05T14:45:24.168Z,994.10
2018-01-05T14:47:17.065Z,994.08
2018-01-05T14:48:17.118Z,994.08
2018-01-05T14:50:10.008Z,994.09
2018-01-05T14:51:10.012Z,994.12
2018-01-05T14:53:02.907Z,994.13
2018-01-05T14:54:02.920Z,994.21
2018-01-05T14:55:55.839Z,994.19
2018-01-05T14:56:55.845Z,994.13
2018-01-05T14:58:48.789Z,994.17
2018-01-05T14:59:48.766Z,994.18
2018-01-05T15:01:41.822Z,994.13
2018-01-05T15:02:41.876Z,994.11
2018-01-05T15:04:34.915Z,994.09
2018-01-05T15:05:34.797Z,994.11
2018-01-05T15:07:27.695Z,994.07
2018-01-05T15:08:27.692Z,994.14
2018-01-05T15:10:20.713Z,994.15
2018-01-05T15:11:20.717Z,994.16
2018-01-05T15:13:13.665Z,994.20
2018-01-05T15:14:13.657Z,994.18
2018-01-05T15:16:06.564Z,994.22
2018-01-05T15:17:06.571Z,994.22
2018-01-05T15:18:59.517Z,994.26
2018-01-05T15:19:59.507Z,994.23
2018-01-05T15:21:52.405Z,994.26
2018-01-05T15:22:52.466Z,994.24
2018-01-05T15:24:45.627Z,994.28
2018-01-05T15:25:45.619Z,994.41
2018-01-05T15:27:38.538Z,994.39
2018-01-05T15:28:38.666Z,994.39
2018-01-05T15:30:31.664Z,994.44
2018-01-05T15:31:31.676Z,994.45
2018-01-05T15:33:25.908Z,994.45
2018-01-05T15:34:25.927Z,994.43
2018-01-05T15:36:18.861Z,994.41
2018-01-05T15:37:18.868Z,994.45
2018-01-05T15:39:11.961Z,994.40
2018-01-05T15:40:11.961Z,994.45
2018-01-05T15:42:04.915Z,994.47
2018-01-05T15:43:04.900Z,994.46
2018-01-05T15:44:57.818Z,994.44
2018-01-05T15:45:57.827Z,994.49
2018-01-05T15:47:50.755Z,994.51
2018-01-05T15:48:50.750Z,994.52
2018-01-05T15:50:43.657Z,994.51
2018-01-05T15:51:43.669Z,994.56
2018-01-05T15:53:36.592Z,994.61
2018-01-05T15:54:36.594Z,994.63
2018-01-05T15:56:30.405Z,994.63
2018-01-05T15:57:30.411Z,994.70
2018-01-05T15:59:23.337Z,994.72
2018-01-05T16:00:23.332Z,994.74
2018-01-05T16:02:16.291Z,994.81
2018-01-05T16:03:16.275Z,994.87
2018-01-05T16:05:09.177Z,994.90
2018-01-05T16:06:09.183Z,994.89
2018-01-05T16:08:02.141Z,994.91
2018-01-05T16:09:02.132Z,994.91
2018-01-05T16:10:55.078Z,994.94
2018-01-05T16:11:55.086Z,994.94
2018-01-05T16:13:48.006Z,994.93
2018-01-05T16:14:47.999Z,994.94
2018-01-05T16:16:40.907Z,994.90
2018-01-05T16:17:40.916Z,994.97
2018-01-05T16:19:33.848Z,994.98
2018-01-05T16:20:33.839Z,995.06
2018-01-05T16:22:27.253Z,995.13
2018-01-05T16:23:27.266Z,995.11
2018-01-05T16:25:20.236Z,995.08
2018-01-05T16:26:20.230Z,995.08
2018-01-05T16:28:13.186Z,995.15
2018-01-05T16:29:13.169Z,995.16
2018-01-05T16:31:06.142Z,995.19
2018-01-05T16:32:06.096Z,995.18
2018-01-05T16:33:58.996Z,995.13
2018-01-05T16:34:59.014Z,995.13
2018-01-05T16:36:51.954Z,995.10
2018-01-05T16:37:51.924Z,995.07
2018-01-05T16:39:44.952Z,995.09
2018-01-05T16:40:44.849Z,995.12
2018-01-05T16:42:37.790Z,995.18
2018-01-05T16:43:37.762Z,995.13
2018-01-05T16:45:30.688Z,995.23
2018-01-05T16:46:30.682Z,995.20
2018-01-05T16:48:23.599Z,995.18
2018-01-05T16:49:23.603Z,995.20
2018-01-05T16:51:16.550Z,995.21
2018-01-05T16:52:16.526Z,995.20
2018-01-05T16:54:09.628Z,995.22
2018-01-05T16:55:09.615Z,995.21
2018-01-05T16:57:02.572Z,995.28
2018-01-05T16:58:02.569Z,995.23
2018-01-05T17:01:28.304Z,995.22
2018-01-05T17:02:28.374Z,995.25
2018-01-05T17:04:21.256Z,995.28
2018-01-05T17:05:21.271Z,995.25
2018-01-05T17:07:15.155Z,995.30
2018-01-05T17:08:15.186Z,995.31
2018-01-05T17:10:08.349Z,995.36
2018-01-05T17:11:08.256Z,995.40
2018-01-05T17:13:01.179Z,995.41
2018-01-05T17:14:01.192Z,995.37
2018-01-05T17:15:54.108Z,995.40
2018-01-05T17:16:54.109Z,995.43
2018-01-05T17:18:48.026Z,995.52
2018-01-05T17:19:48.032Z,995.58
2018-01-05T17:21:41.622Z,995.54
2018-01-05T17:22:41.246Z,995.57
2018-01-05T17:24:34.316Z,995.63
2018-01-05T17:25:34.217Z,995.58
2018-01-05T17:27:27.207Z,995.62
2018-01-05T17:28:27.185Z,995.63
2018-01-05T17:30:20.093Z,995.63
2018-01-05T17:31:20.114Z,995.68
2018-01-05T17:33:13.052Z,995.66
2018-01-05T17:34:13.031Z,995.73
2018-01-05T17:36:05.940Z,995.77
2018-01-05T17:37:06.185Z,995.76
2018-01-05T17:38:58.869Z,995.83
2018-01-05T17:39:58.874Z,995.83
2018-01-05T17:41:51.862Z,995.83
2018-01-05T17:42:51.878Z,995.81
2018-01-05T17:44:45.738Z,995.90
2018-01-05T17:45:45.753Z,995.92
2018-01-05T17:47:38.678Z,995.89
2018-01-05T17:48:38.678Z,995.91
2018-01-05T17:50:31.580Z,995.87
2018-01-05T17:51:31.603Z,995.96
2018-01-05T17:53:24.505Z,995.91
2018-01-05T17:54:24.518Z,995.95
2018-01-05T17:56:17.444Z,996.02
2018-01-05T17:57:17.449Z,996.00
2018-01-05T17:59:10.364Z,996.01
2018-01-05T18:00:10.384Z,996.03